Time;durP1;ratioP1;P1;durP2;ratioP2;P2;SDS_P1;SDS_P2;PMS_P1;PMS_P2;Temp;Humidity;BMP_temperature;BMP_pressure;BME280_temperature;BME280_humidity;BME280_pressure;Samples;Min_cycle;Max_cycle;Signal;HPM_P1;HPM_P2
2021/01/15 00:01:21;;;;;;;3.90;3.13;;;13.80;46.70;;;;;;6190761;23;20013;-85
2021/01/15 00:03:50;;;;;;;4.45;3.70;;;13.80;46.00;;;;;;6191436;23;20043;-85
2021/01/15 00:06:25;;;;;;;5.05;3.75;;;13.80;46.10;;;;;;6191650;23;20291;-85
2021/01/15 00:08:55;;;;;;;5.30;3.83;;;13.90;46.00;;;;;;6192114;23;20466;-85
2021/01/15 00:11:26;;;;;;;6.32;3.97;;;13.80;46.00;;;;;;6216137;23;20020;-84
2021/01/15 00:13:59;;;;;;;5.28;4.22;;;13.80;46.00;;;;;;6192362;23;20378;-85
2021/01/15 00:16:38;;;;;;;4.45;3.60;;;13.80;45.90;;;;;;6192064;23;20016;-85
2021/01/15 00:19:12;;;;;;;4.40;3.55;;;13.80;45.90;;;;;;6191909;23;20020;-85
2021/01/15 00:21:50;;;;;;;4.75;3.53;;;13.80;45.90;;;;;;6167865;23;20056;-85
2021/01/15 00:24:21;;;;;;;4.70;3.85;;;13.80;45.90;;;;;;6193582;23;20009;-85
2021/01/15 00:26:59;;;;;;;4.53;3.88;;;13.80;45.90;;;;;;6192000;23;20298;-86
2021/01/15 00:29:29;;;;;;;4.53;3.40;;;13.80;45.70;;;;;;6167401;23;20017;-85
2021/01/15 00:32:00;;;;;;;3.88;3.47;;;13.80;46.00;;;;;;6191917;23;20016;-85
2021/01/15 00:34:37;;;;;;;4.43;3.83;;;13.80;45.80;;;;;;6192236;23;20031;-85
2021/01/15 00:37:08;;;;;;;4.50;3.63;;;13.80;45.70;;;;;;6191450;23;20024;-85
2021/01/15 00:39:34;;;;;;;4.13;3.40;;;13.80;45.80;;;;;;6191880;23;20074;-85
2021/01/15 00:42:03;;;;;;;4.55;3.35;;;13.80;45.80;;;;;;6216503;23;20008;-85
2021/01/15 00:44:32;;;;;;;6.00;3.70;;;13.90;45.90;;;;;;6191658;23;20305;-85
2021/01/15 00:47:03;;;;;;;4.60;3.50;;;13.90;46.00;;;;;;6191635;23;20013;-85
2021/01/15 00:49:31;;;;;;;5.38;3.95;;;13.90;45.90;;;;;;6192125;23;20020;-85
2021/01/15 00:52:05;;;;;;;4.00;3.53;;;13.80;45.70;;;;;;6190409;23;20012;-85
2021/01/15 00:54:33;;;;;;;4.70;4.00;;;13.90;45.60;;;;;;6189823;23;20302;-85
2021/01/15 00:57:02;;;;;;;4.80;3.70;;;13.90;45.60;;;;;;6189486;23;20012;-85
2021/01/15 00:59:31;;;;;;;4.93;3.85;;;13.90;45.60;;;;;;6190784;23;20013;-85
2021/01/15 01:01:59;;;;;;;4.28;3.78;;;13.90;45.60;;;;;;6189982;23;20020;-85
2021/01/15 01:04:27;;;;;;;4.47;3.70;;;14.00;45.60;;;;;;6164850;23;20047;-85
2021/01/15 01:06:53;;;;;;;5.07;3.70;;;14.00;45.50;;;;;;6165484;23;20035;-85
2021/01/15 01:09:22;;;;;;;4.30;3.80;;;14.00;45.50;;;;;;6189326;23;20430;-85
2021/01/15 01:11:51;;;;;;;4.03;3.40;;;14.00;45.40;;;;;;6165187;23;20048;-85
2021/01/15 01:14:20;;;;;;;4.03;3.63;;;14.00;45.30;;;;;;6166028;23;20016;-85
2021/01/15 01:16:48;;;;;;;4.60;3.38;;;14.00;45.40;;;;;;6189804;23;20516;-85
2021/01/15 01:19:26;;;;;;;4.68;3.67;;;14.00;45.40;;;;;;6190898;23;20032;-85
2021/01/15 01:21:52;;;;;;;4.65;3.75;;;14.00;45.30;;;;;;6189039;23;20295;-85
2021/01/15 01:24:18;;;;;;;4.32;3.50;;;14.00;45.20;;;;;;6191411;23;20024;-84
2021/01/15 01:26:44;;;;;;;4.13;3.42;;;14.00;45.20;;;;;;6191329;23;20031;-85
2021/01/15 01:29:12;;;;;;;3.92;3.53;;;14.00;45.20;;;;;;6191235;23;20032;-85
2021/01/15 01:31:44;;;;;;;5.28;4.10;;;14.00;45.30;;;;;;6192220;23;20305;-85
2021/01/15 01:34:22;;;;;;;4.32;3.90;;;14.00;45.20;;;;;;6168051;23;20013;-85
2021/01/15 01:37:03;;;;;;;3.75;3.30;;;14.00;45.10;;;;;;6193381;23;20016;-85
2021/01/15 01:39:31;;;;;;;3.78;3.40;;;14.00;45.00;;;;;;6193408;23;20074;-85
2021/01/15 01:42:05;;;;;;;;;;;14.00;45.00;;;;;;6193784;23;20012;-85
2021/01/15 01:44:31;;;;;;;5.05;3.80;;;13.90;45.00;;;;;;6193048;23;19923;-84
2021/01/15 01:46:59;;;;;;;4.68;3.85;;;13.90;45.40;;;;;;6193245;23;20013;-84
2021/01/15 01:49:28;;;;;;;4.55;4.05;;;13.90;45.20;;;;;;6191985;23;20070;-84
2021/01/15 01:51:56;;;;;;;4.38;3.75;;;14.00;45.30;;;;;;6193084;23;20086;-84
2021/01/15 01:54:23;;;;;;;4.38;3.70;;;13.90;45.20;;;;;;6192461;23;20043;-85
2021/01/15 01:56:50;;;;;;;3.95;3.55;;;13.90;45.30;;;;;;6218760;23;20087;-85
2021/01/15 01:59:16;;;;;;;4.57;3.88;;;13.90;45.20;;;;;;6193077;23;20013;-84
2021/01/15 02:01:42;;;;;;;5.45;3.83;;;13.80;45.30;;;;;;6167804;23;20070;-85
2021/01/15 02:04:17;;;;;;;4.53;3.83;;;13.80;45.30;;;;;;6193176;23;20009;-85
2021/01/15 02:06:47;;;;;;;4.85;3.90;;;13.80;45.20;;;;;;6193529;23;20017;-85
2021/01/15 02:09:26;;;;;;;4.47;4.05;;;13.80;45.30;;;;;;6191831;23;20019;-85
2021/01/15 02:12:17;;;;;;;4.20;3.55;;;13.80;45.30;;;;;;6192561;23;20027;-85
2021/01/15 02:14:58;;;;;;;4.55;3.53;;;13.80;45.30;;;;;;6184438;23;20016;-85
2021/01/15 02:17:35;;;;;;;5.47;4.13;;;13.80;45.30;;;;;;6192552;23;20067;-85
2021/01/15 02:20:27;;;;;;;4.00;3.40;;;13.80;45.40;;;;;;6192679;23;20012;-85
2021/01/15 02:23:24;;;;;;;5.47;3.75;;;13.80;45.20;;;;;;6192345;23;20095;-85
2021/01/15 02:26:04;;;;;;;4.35;3.65;;;13.80;45.30;;;;;;6193310;23;20433;-85
2021/01/15 02:28:49;;;;;;;4.85;3.60;;;13.80;45.40;;;;;;6192227;23;20028;-85
2021/01/15 02:31:48;;;;;;;4.28;3.30;;;13.70;45.50;;;;;;6202607;23;20017;-85
2021/01/15 02:34:47;;;;;;;4.15;3.40;;;13.70;45.40;;;;;;6192810;23;20016;-84
2021/01/15 02:37:17;;;;;;;5.30;3.92;;;13.70;45.40;;;;;;6192112;23;20008;-86
2021/01/15 02:40:09;;;;;;;3.90;3.53;;;13.70;45.50;;;;;;6193550;23;20019;-84
2021/01/15 02:42:38;;;;;;;4.38;3.35;;;13.70;45.40;;;;;;6191609;23;20013;-85
2021/01/15 02:45:09;;;;;;;4.05;3.53;;;13.70;45.40;;;;;;6217627;23;20020;-84
2021/01/15 02:47:48;;;;;;;4.07;3.65;;;13.70;45.40;;;;;;6192620;23;20349;-85
2021/01/15 02:50:16;;;;;;;4.90;3.70;;;13.70;45.40;;;;;;6192510;23;20012;-85
2021/01/15 02:52:43;;;;;;;4.10;3.70;;;13.70;45.50;;;;;;6217472;23;20013;-85
2021/01/15 02:55:12;;;;;;;4.10;3.47;;;13.70;45.40;;;;;;6192540;23;20422;-85
2021/01/15 02:57:39;;;;;;;5.55;3.70;;;13.70;45.40;;;;;;6192518;23;20008;-85
2021/01/15 03:00:15;;;;;;;4.55;3.47;;;13.70;45.40;;;;;;6193521;23;20402;-84
2021/01/15 03:03:15;;;;;;;4.68;3.35;;;13.70;45.40;;;;;;6192489;23;20036;-85
2021/01/15 03:06:04;;;;;;;3.58;3.13;;;13.80;45.30;;;;;;6190807;23;20017;-85
2021/01/15 03:08:35;;;;;;;4.35;3.38;;;13.70;45.40;;;;;;6191855;23;20022;-86
2021/01/15 03:11:03;;;;;;;4.20;3.30;;;13.70;45.30;;;;;;6192139;23;20086;-85
2021/01/15 03:13:30;;;;;;;3.83;3.42;;;13.70;45.40;;;;;;6192154;23;20012;-85
2021/01/15 03:16:06;;;;;;;4.70;3.40;;;13.70;45.30;;;;;;6191858;23;20020;-85
2021/01/15 03:18:35;;;;;;;3.67;3.28;;;13.70;45.20;;;;;;6191643;23;20418;-84
2021/01/15 03:21:07;;;;;;;4.15;3.42;;;13.70;45.40;;;;;;6193774;23;20012;-85
2021/01/15 03:23:40;;;;;;;4.50;3.35;;;13.70;45.40;;;;;;6192189;23;20406;-84
2021/01/15 03:26:07;;;;;;;4.20;3.40;;;13.70;45.30;;;;;;6192434;23;20302;-85
2021/01/15 03:28:33;;;;;;;4.68;3.80;;;13.70;45.30;;;;;;6192271;23;20327;-85
2021/01/15 03:31:01;;;;;;;4.43;3.28;;;13.70;45.30;;;;;;6191793;23;20016;-84
2021/01/15 03:33:32;;;;;;;5.22;3.70;;;13.70;45.30;;;;;;6192090;23;20023;-86
2021/01/15 03:35:58;;;;;;;4.25;3.30;;;13.70;45.30;;;;;;6191252;23;20016;-85
2021/01/15 03:38:24;;;;;;;4.35;3.38;;;13.70;45.20;;;;;;6192808;23;20009;-85
2021/01/15 03:40:53;;;;;;;3.55;2.92;;;13.70;45.20;;;;;;6192168;23;20017;-85
2021/01/15 03:43:25;;;;;;;4.72;3.63;;;13.70;45.10;;;;;;6192757;23;20016;-85
2021/01/15 03:45:55;;;;;;;3.53;3.08;;;13.70;45.30;;;;;;6192831;23;20020;-85
2021/01/15 03:48:21;;;;;;;4.22;3.30;;;13.70;45.20;;;;;;6191636;23;20032;-85
2021/01/15 03:50:49;;;;;;;4.05;2.95;;;13.70;45.40;;;;;;6191992;23;20047;-85
2021/01/15 03:53:15;;;;;;;4.10;3.00;;;13.70;45.30;;;;;;6191854;23;20009;-84
2021/01/15 03:55:44;;;;;;;3.75;3.15;;;13.70;45.30;;;;;;6192104;23;20016;-84
2021/01/15 03:58:10;;;;;;;3.72;3.17;;;13.70;45.30;;;;;;6191690;23;20095;-85
2021/01/15 04:00:36;;;;;;;4.25;2.97;;;13.70;45.30;;;;;;6191814;23;20082;-85
2021/01/15 04:03:03;;;;;;;3.05;2.75;;;13.70;45.30;;;;;;6216629;23;20096;-85
2021/01/15 04:05:33;;;;;;;4.78;3.50;;;13.70;45.30;;;;;;6191827;23;20012;-84
2021/01/15 04:08:02;;;;;;;4.90;3.45;;;13.70;45.40;;;;;;6192109;23;20009;-85
2021/01/15 04:10:29;;;;;;;4.70;3.35;;;13.70;45.30;;;;;;6191466;23;20020;-85
2021/01/15 04:12:57;;;;;;;4.40;3.20;;;13.70;45.30;;;;;;6167844;23;20017;-85
2021/01/15 04:15:23;;;;;;;3.95;3.25;;;13.70;45.20;;;;;;6191495;23;20353;-85
2021/01/15 04:17:52;;;;;;;4.43;3.42;;;13.70;45.40;;;;;;6192063;23;20294;-84
2021/01/15 04:20:18;;;;;;;4.45;3.50;;;13.70;45.30;;;;;;6191988;23;20017;-85
2021/01/15 04:22:49;;;;;;;3.85;3.10;;;13.70;45.30;;;;;;6192226;23;20023;-85
2021/01/15 04:25:15;;;;;;;4.53;3.00;;;13.70;45.30;;;;;;6192560;23;20035;-85
2021/01/15 04:27:44;;;;;;;4.60;3.33;;;13.70;45.30;;;;;;6192386;23;20082;-85
2021/01/15 04:30:16;;;;;;;4.18;3.55;;;13.60;45.30;;;;;;6191237;23;20015;-85
2021/01/15 04:32:47;;;;;;;4.32;3.70;;;13.70;45.30;;;;;;6192097;23;20012;-85
2021/01/15 04:35:17;;;;;;;4.82;3.40;;;13.80;45.50;;;;;;6191728;23;20091;-85
2021/01/15 04:37:47;;;;;;;3.92;3.15;;;13.70;45.50;;;;;;6191971;23;20008;-85
2021/01/15 04:40:19;;;;;;;4.13;3.10;;;13.60;45.40;;;;;;6192992;23;20322;-85
2021/01/15 04:42:50;;;;;;;3.13;2.83;;;13.70;45.40;;;;;;6191286;23;20091;-85
2021/01/15 04:45:19;;;;;;;3.67;3.10;;;13.70;45.30;;;;;;6192223;23;20020;-85
2021/01/15 04:47:48;;;;;;;4.25;3.40;;;13.70;45.30;;;;;;6192546;23;20345;-85
2021/01/15 04:50:20;;;;;;;3.67;3.25;;;13.70;45.40;;;;;;6216373;23;20009;-85
2021/01/15 04:52:53;;;;;;;3.92;3.22;;;13.70;45.50;;;;;;6192038;23;20088;-85
2021/01/15 04:55:26;;;;;;;3.42;2.90;;;13.70;45.40;;;;;;6191044;23;20015;-85
2021/01/15 04:57:59;;;;;;;4.55;3.28;;;13.70;45.40;;;;;;6192077;23;20326;-85
2021/01/15 05:00:27;;;;;;;2.90;2.60;;;13.70;45.40;;;;;;6191401;23;20016;-85
2021/01/15 05:03:01;;;;;;;4.30;3.65;;;13.80;45.40;;;;;;6166824;23;20345;-85
2021/01/15 05:05:50;;;;;;;3.65;3.10;;;13.80;45.30;;;;;;6192215;23;20020;-85
2021/01/15 05:08:27;;;;;;;4.28;3.47;;;13.80;45.30;;;;;;6190710;23;20017;-85
2021/01/15 05:11:10;;;;;;;3.97;3.53;;;13.80;45.30;;;;;;6190749;23;20021;-85
2021/01/15 05:13:37;;;;;;;3.33;2.88;;;13.80;45.20;;;;;;6192379;23;20012;-84
2021/01/15 05:16:44;;;;;;;4.60;2.72;;;13.90;45.40;;;;;;6217318;23;20016;-89
2021/01/15 05:19:14;;;;;;;5.85;3.10;;;13.90;45.60;;;;;;6218128;23;20017;-87
2021/01/15 05:25:12;;;;;;;6.15;3.53;;;14.10;46.30;;;;;;6229499;23;20013;-78
2021/01/15 05:27:44;;;;;;;5.10;2.80;;;14.10;46.90;;;;;;6218544;23;20024;-84
2021/01/15 05:31:18;;;;;;;7.72;2.90;;;14.20;47.50;;;;;;6192378;23;20079;-81
2021/01/15 05:34:23;;;;;;;5.45;2.80;;;14.20;47.60;;;;;;6079655;23;20086;-89
2021/01/15 05:36:55;;;;;;;9.13;2.78;;;14.30;48.00;;;;;;6166157;23;20017;-87
2021/01/15 05:40:16;;;;;;;8.30;3.20;;;14.40;48.10;;;;;;6191213;23;20082;-88
2021/01/15 05:42:50;;;;;;;7.57;2.17;;;14.50;48.40;;;;;;6166533;23;20019;-83
2021/01/15 05:45:16;;;;;;;13.25;2.45;;;14.50;48.60;;;;;;6203852;23;20020;-83
2021/01/15 05:47:46;;;;;;;9.10;3.17;;;14.50;48.80;;;;;;6217698;23;20009;-82
2021/01/15 05:50:15;;;;;;;10.45;2.42;;;14.60;49.80;;;;;;6217848;23;20023;-82
2021/01/15 05:52:58;;;;;;;10.75;2.35;;;14.70;50.00;;;;;;6202369;23;20012;-81
2021/01/15 05:55:28;;;;;;;10.20;2.60;;;14.80;49.70;;;;;;6192729;23;20313;-82
2021/01/15 05:57:54;;;;;;;4.65;2.88;;;14.90;50.00;;;;;;6228351;23;20012;-82
2021/01/15 06:00:25;;;;;;;13.27;4.18;;;15.00;50.30;;;;;;6193441;23;20354;-82
2021/01/15 06:02:52;;;;;;;6.95;3.58;;;15.10;51.00;;;;;;6193290;23;20095;-83
2021/01/15 06:05:22;;;;;;;8.48;2.47;;;15.20;51.40;;;;;;6192237;23;20012;-81
2021/01/15 06:07:58;;;;;;;8.70;2.30;;;15.20;51.30;;;;;;6202760;23;20092;-81
2021/01/15 06:10:28;;;;;;;8.70;3.08;;;15.30;51.10;;;;;;6218676;23;20098;-82
2021/01/15 06:12:54;;;;;;;12.18;3.05;;;15.30;51.40;;;;;;6192786;23;20008;-83
2021/01/15 06:15:20;;;;;;;8.38;2.72;;;15.40;51.40;;;;;;6192634;23;20092;-79
2021/01/15 06:17:51;;;;;;;13.98;3.88;;;15.50;51.50;;;;;;6228683;23;20449;-77
2021/01/15 06:20:23;;;;;;;12.70;4.30;;;15.50;51.80;;;;;;6228738;23;20086;-81
2021/01/15 06:22:52;;;;;;;8.23;2.97;;;15.50;51.20;;;;;;6228639;23;20418;-79
2021/01/15 06:25:24;;;;;;;8.52;3.53;;;15.50;51.20;;;;;;6219017;23;20284;-78
2021/01/15 06:27:56;;;;;;;6.82;3.30;;;15.50;50.40;;;;;;6202333;23;20016;-78
2021/01/15 06:30:27;;;;;;;7.13;3.55;;;15.50;50.50;;;;;;6218674;23;20283;-79
2021/01/15 06:33:05;;;;;;;8.68;4.10;;;15.60;49.80;;;;;;6228874;23;20067;-79
2021/01/15 06:35:37;;;;;;;6.80;4.00;;;15.70;49.10;;;;;;6202010;23;20411;-79
2021/01/15 06:38:16;;;;;;;6.63;2.20;;;15.70;48.70;;;;;;6228796;23;20016;-84
2021/01/15 06:40:50;;;;;;;9.15;2.72;;;15.80;49.60;;;;;;6168243;23;20410;-84
2021/01/15 06:43:17;;;;;;;12.00;3.00;;;15.80;50.20;;;;;;6167822;23;20079;-84
2021/01/15 06:45:47;;;;;;;8.73;3.03;;;15.90;49.90;;;;;;6191758;23;20020;-85
2021/01/15 06:48:16;;;;;;;7.45;2.67;;;15.90;49.50;;;;;;6192098;23;20043;-86
2021/01/15 06:50:44;;;;;;;6.80;3.13;;;15.80;50.40;;;;;;6166826;23;20035;-87
2021/01/15 06:53:16;;;;;;;7.20;2.65;;;15.70;50.00;;;;;;6167162;23;20031;-86
2021/01/15 06:55:53;;;;;;;13.02;2.53;;;15.60;50.30;;;;;;6167179;23;20095;-83
2021/01/15 06:58:25;;;;;;;9.50;2.22;;;15.50;51.00;;;;;;6191720;23;20016;-81
2021/01/15 07:01:32;;;;;;;8.85;2.55;;;15.60;51.40;;;;;;6167546;23;20039;-85
2021/01/15 07:04:48;;;;;;;8.40;3.00;;;15.60;51.40;;;;;;6228040;23;20008;-89
2021/01/15 07:07:17;;;;;;;10.18;3.20;;;15.70;50.60;;;;;;6191773;23;20298;-87
2021/01/15 07:09:52;;;;;;;10.48;3.13;;;15.60;51.00;;;;;;6202153;23;20008;-85
2021/01/15 07:12:24;;;;;;;14.32;3.20;;;15.70;51.50;;;;;;6217872;23;20017;-86
2021/01/15 07:14:52;;;;;;;12.48;3.28;;;15.70;51.90;;;;;;6167458;23;20051;-83
2021/01/15 07:17:31;;;;;;;12.30;2.58;;;15.70;52.70;;;;;;6192157;23;20013;-84
2021/01/15 07:20:05;;;;;;;8.55;2.15;;;15.80;52.60;;;;;;6202076;23;20040;-84
2021/01/15 07:22:47;;;;;;;10.73;3.45;;;15.80;52.70;;;;;;6228455;23;20083;-83
2021/01/15 07:25:13;;;;;;;8.43;2.72;;;15.80;51.10;;;;;;6166429;23;20013;-84
2021/01/15 07:27:40;;;;;;;5.65;2.75;;;15.80;51.40;;;;;;6228057;23;20008;-81
2021/01/15 07:30:20;;;;;;;10.73;2.53;;;15.80;51.50;;;;;;6191835;23;20426;-83
2021/01/15 07:32:53;;;;;;;7.18;2.28;;;15.80;51.80;;;;;;6189787;23;20016;-84
2021/01/15 07:35:25;;;;;;;5.40;2.78;;;15.80;51.90;;;;;;6227695;23;20008;-84
2021/01/15 07:38:14;;;;;;;9.60;2.50;;;15.80;51.90;;;;;;6166192;23;20342;-84
2021/01/15 07:40:41;;;;;;;14.35;2.78;;;15.70;51.80;;;;;;6217705;23;20028;-84
2021/01/15 07:43:29;;;;;;;13.52;2.60;;;15.70;52.00;;;;;;6217802;23;20459;-84
2021/01/15 07:45:59;;;;;;;9.35;2.38;;;15.80;51.90;;;;;;6201536;23;20067;-84
2021/01/15 07:48:25;;;;;;;9.90;1.98;;;15.80;51.90;;;;;;6191592;23;20469;-83
2021/01/15 07:50:52;;;;;;;8.10;2.30;;;15.90;51.80;;;;;;6191612;23;20039;-87
2021/01/15 07:53:44;;;;;;;8.95;2.58;;;15.90;51.20;;;;;;6166310;23;20017;-87
2021/01/15 07:56:28;;;;;;;6.30;2.10;;;15.90;50.00;;;;;;6167030;23;20021;-87
2021/01/15 07:58:56;;;;;;;8.40;2.38;;;15.80;50.20;;;;;;6166370;23;20020;-88
2021/01/15 08:01:23;;;;;;;8.65;2.20;;;15.70;50.40;;;;;;6192023;23;20016;-82
2021/01/15 08:03:54;;;;;;;8.65;1.98;;;15.70;50.80;;;;;;6217494;23;20013;-82
2021/01/15 08:06:21;;;;;;;8.18;2.33;;;15.80;51.10;;;;;;6201716;23;20013;-83
2021/01/15 08:09:03;;;;;;;9.25;2.45;;;15.70;51.00;;;;;;6201473;23;20031;-82
2021/01/15 08:11:30;;;;;;;8.27;2.42;;;15.80;50.90;;;;;;6197011;23;20017;-82
2021/01/15 08:14:16;;;;;;;6.93;1.95;;;15.80;51.00;;;;;;6161834;23;20103;-82
2021/01/15 08:16:44;;;;;;;10.18;2.35;;;15.80;51.10;;;;;;6171409;23;20024;-82
2021/01/15 08:19:13;;;;;;;7.35;2.10;;;15.90;51.20;;;;;;6197810;23;20012;-81
2021/01/15 08:21:41;;;;;;;5.75;2.53;;;15.90;51.00;;;;;;6197212;23;20013;-85
2021/01/15 08:24:07;;;;;;;8.88;2.65;;;15.90;50.40;;;;;;6186817;23;20040;-87
2021/01/15 08:26:55;;;;;;;7.93;2.10;;;15.90;50.20;;;;;;6171291;23;20008;-86
2021/01/15 08:29:29;;;;;;;6.30;2.00;;;15.90;50.20;;;;;;6161780;23;20031;-79
2021/01/15 08:31:57;;;;;;;5.30;1.52;;;15.80;50.50;;;;;;6197378;23;20021;-82
2021/01/15 08:34:29;;;;;;;5.13;2.33;;;15.80;50.70;;;;;;6187354;23;20016;-83
2021/01/15 08:36:58;;;;;;;7.40;2.20;;;15.90;50.70;;;;;;6187218;23;20023;-82
2021/01/15 08:39:24;;;;;;;8.02;2.38;;;15.90;50.60;;;;;;6197457;23;20023;-82
2021/01/15 08:41:57;;;;;;;4.75;2.13;;;16.00;51.10;;;;;;6197145;23;20139;-82
2021/01/15 08:44:23;;;;;;;6.30;2.10;;;15.90;50.30;;;;;;6187362;23;20032;-83
2021/01/15 08:46:51;;;;;;;3.83;2.15;;;15.80;50.50;;;;;;6198003;23;20087;-82
2021/01/15 08:49:17;;;;;;;7.68;2.30;;;15.70;50.50;;;;;;6173500;23;20418;-83
2021/01/15 08:51:49;;;;;;;9.05;2.53;;;15.60;50.70;;;;;;6163539;23;20013;-79
2021/01/15 08:54:18;;;;;;;6.85;2.28;;;15.60;51.00;;;;;;6188486;23;20091;-83
2021/01/15 08:56:48;;;;;;;6.68;2.35;;;15.50;50.70;;;;;;6173584;23;20020;-83
2021/01/15 08:59:36;;;;;;;8.05;2.15;;;15.50;51.50;;;;;;6163490;23;20013;-83
2021/01/15 09:02:06;;;;;;;5.25;2.05;;;15.50;50.90;;;;;;6173081;23;20017;-83
2021/01/15 09:04:34;;;;;;;6.75;2.13;;;15.40;51.20;;;;;;6138793;23;20020;-83
2021/01/15 09:07:02;;;;;;;3.15;2.10;;;15.40;51.30;;;;;;6173084;23;20302;-82
2021/01/15 09:09:30;;;;;;;3.85;2.00;;;15.30;51.30;;;;;;6172780;23;20039;-82
2021/01/15 09:12:03;;;;;;;5.35;2.38;;;15.30;51.30;;;;;;6185794;23;20095;-83
2021/01/15 09:14:29;;;;;;;4.72;1.90;;;15.30;51.40;;;;;;6228438;23;20008;-82
2021/01/15 09:16:55;;;;;;;4.40;1.85;;;15.30;51.40;;;;;;6219088;23;20012;-82
2021/01/15 09:19:21;;;;;;;7.28;2.10;;;15.20;51.40;;;;;;6228558;23;20422;-82
2021/01/15 09:22:07;;;;;;;9.00;2.33;;;15.20;51.40;;;;;;6227033;23;20019;-83
2021/01/15 09:24:34;;;;;;;8.15;1.92;;;15.20;51.40;;;;;;6228864;23;20015;-82
2021/01/15 09:27:08;;;;;;;5.32;1.90;;;15.20;52.10;;;;;;6216786;23;20009;-82
2021/01/15 09:29:35;;;;;;;5.15;1.58;;;15.30;51.80;;;;;;6227118;23;20032;-83
2021/01/15 09:32:01;;;;;;;7.85;1.90;;;15.40;51.60;;;;;;6229541;23;20023;-83
2021/01/15 09:34:28;;;;;;;8.48;2.03;;;15.50;51.60;;;;;;6217912;23;20015;-82
2021/01/15 09:36:54;;;;;;;5.97;1.67;;;15.60;51.70;;;;;;6228755;23;20108;-81
2021/01/15 09:39:22;;;;;;;3.63;1.27;;;15.70;51.60;;;;;;6229047;23;20078;-81
2021/01/15 09:41:58;;;;;;;6.60;2.00;;;15.80;51.40;;;;;;6228545;23;20012;-81
2021/01/15 09:44:27;;;;;;;14.23;2.45;;;15.90;51.00;;;;;;6228814;23;20017;-81
2021/01/15 09:47:01;;;;;;;6.75;2.50;;;16.00;51.70;;;;;;6227957;23;20020;-82
2021/01/15 09:49:27;;;;;;;;;;;16.00;50.70;;;;;;6227802;23;20091;-81
2021/01/15 09:51:53;;;;;;;3.92;1.75;;;16.00;50.80;;;;;;6228440;23;19919;-81
2021/01/15 09:54:19;;;;;;;7.75;2.00;;;16.10;51.20;;;;;;6227250;23;20345;-82
2021/01/15 09:56:45;;;;;;;4.93;1.83;;;16.10;50.30;;;;;;6227445;23;20009;-81
2021/01/15 09:59:15;;;;;;;7.55;1.80;;;16.10;50.10;;;;;;6226652;23;20040;-82
2021/01/15 10:01:41;;;;;;;7.95;1.83;;;16.10;50.00;;;;;;6224737;23;20344;-83
2021/01/15 10:04:07;;;;;;;8.20;1.95;;;16.10;50.20;;;;;;6223783;23;20027;-84
2021/01/15 10:06:40;;;;;;;8.90;2.50;;;16.20;50.10;;;;;;6224778;23;20036;-84
2021/01/15 10:09:07;;;;;;;8.00;2.10;;;16.20;50.60;;;;;;6225199;23;20020;-82
2021/01/15 10:11:35;;;;;;;9.60;2.55;;;16.10;51.20;;;;;;6221716;23;20501;-82
2021/01/15 10:14:06;;;;;;;7.88;2.30;;;15.90;51.70;;;;;;6227251;23;20020;-82
2021/01/15 10:16:35;;;;;;;10.70;1.95;;;15.80;52.20;;;;;;6226606;23;20030;-83
2021/01/15 10:19:01;;;;;;;16.42;2.17;;;15.70;52.80;;;;;;6228148;23;20008;-83
2021/01/15 10:21:28;;;;;;;10.98;2.00;;;15.70;53.10;;;;;;6227436;23;20083;-81
2021/01/15 10:23:58;;;;;;;11.30;2.58;;;15.80;53.20;;;;;;6218583;23;20111;-81
2021/01/15 10:26:34;;;;;;;22.13;3.38;;;15.80;52.50;;;;;;6190628;23;20019;-87
2021/01/15 10:29:22;;;;;;;11.30;2.72;;;15.80;52.50;;;;;;6193320;23;20025;-93
2021/01/15 10:31:54;;;;;;;15.23;2.97;;;15.80;52.70;;;;;;6191858;23;20143;-85
2021/01/15 10:34:26;;;;;;;12.82;3.50;;;15.80;52.60;;;;;;6189617;23;20088;-85
2021/01/15 10:36:54;;;;;;;13.48;2.40;;;15.80;53.00;;;;;;6215953;23;20019;-83
2021/01/15 10:39:22;;;;;;;29.60;3.83;;;15.80;53.20;;;;;;6191427;23;20009;-79
2021/01/15 10:41:51;;;;;;;17.17;3.80;;;15.80;53.40;;;;;;6228215;23;20012;-80
2021/01/15 10:44:20;;;;;;;13.93;3.70;;;15.80;53.10;;;;;;6217307;23;20009;-82
2021/01/15 10:46:50;;;;;;;10.23;4.55;;;15.80;52.70;;;;;;6191046;23;20435;-82
2021/01/15 10:49:18;;;;;;;13.23;3.80;;;15.70;49.80;;;;;;6191534;23;20043;-82
2021/01/15 10:51:46;;;;;;;11.70;3.30;;;15.70;49.60;;;;;;6191233;23;20417;-82
2021/01/15 10:54:12;;;;;;;11.43;3.40;;;15.60;50.70;;;;;;6216889;23;20062;-82
2021/01/15 10:56:39;;;;;;;9.98;3.83;;;15.60;51.00;;;;;;6216792;23;20338;-82
2021/01/15 10:59:06;;;;;;;8.52;2.72;;;15.60;51.00;;;;;;6191760;23;20071;-83
2021/01/15 11:01:44;;;;;;;8.18;3.40;;;15.60;51.00;;;;;;6218404;23;20410;-82
2021/01/15 11:04:11;;;;;;;5.50;3.22;;;15.60;51.50;;;;;;6217272;23;20028;-82
2021/01/15 11:06:41;;;;;;;7.28;3.10;;;15.50;50.70;;;;;;6228021;23;20263;-82
2021/01/15 11:09:10;;;;;;;7.65;3.17;;;15.60;50.60;;;;;;6191010;23;20020;-82
2021/01/15 11:11:36;;;;;;;7.22;2.85;;;15.50;50.50;;;;;;6191202;23;20028;-82
2021/01/15 11:14:02;;;;;;;5.45;2.83;;;15.60;50.50;;;;;;6227143;23;20047;-82
2021/01/15 11:16:28;;;;;;;5.93;2.67;;;15.50;51.00;;;;;;6191845;23;20016;-82
2021/01/15 11:18:54;;;;;;;6.93;2.83;;;15.60;50.40;;;;;;6217269;23;20143;-82
2021/01/15 11:21:26;;;;;;;7.18;2.72;;;15.50;50.30;;;;;;6191654;23;20020;-82
2021/01/15 11:23:53;;;;;;;5.38;3.08;;;15.50;50.30;;;;;;6218127;23;20409;-82
2021/01/15 11:26:26;;;;;;;4.13;2.40;;;15.50;50.20;;;;;;6191464;23;20032;-82
2021/01/15 11:28:57;;;;;;;6.53;2.53;;;15.50;50.20;;;;;;6192199;23;20303;-82
2021/01/15 11:31:23;;;;;;;5.15;2.33;;;15.50;50.20;;;;;;6216536;23;20017;-82
2021/01/15 11:33:49;;;;;;;4.85;2.83;;;15.40;50.10;;;;;;6217467;23;20092;-82
2021/01/15 11:36:16;;;;;;;4.88;2.35;;;15.40;50.00;;;;;;6191921;23;20036;-82
2021/01/15 11:38:42;;;;;;;4.28;2.47;;;15.40;50.00;;;;;;6217230;23;20074;-82
2021/01/15 11:41:17;;;;;;;5.50;2.70;;;15.40;50.00;;;;;;6192315;23;20294;-82
2021/01/15 11:43:44;;;;;;;4.20;2.50;;;15.40;50.00;;;;;;6191325;23;20013;-82
2021/01/15 11:46:10;;;;;;;6.00;3.10;;;15.40;50.00;;;;;;6227079;23;20023;-82
2021/01/15 11:48:38;;;;;;;4.85;2.20;;;15.30;50.00;;;;;;6217049;23;20016;-82
2021/01/15 11:51:06;;;;;;;3.53;2.60;;;15.30;50.00;;;;;;6217119;23;20024;-84
2021/01/15 11:53:33;;;;;;;5.43;2.30;;;15.30;50.00;;;;;;6191586;23;20043;-84
2021/01/15 11:56:01;;;;;;;6.03;2.40;;;15.30;50.00;;;;;;6191527;23;20024;-84
2021/01/15 11:58:27;;;;;;;3.60;2.47;;;15.30;50.00;;;;;;6217087;23;20032;-84
2021/01/15 12:00:55;;;;;;;4.05;2.38;;;15.20;49.90;;;;;;6225578;23;20016;-84
2021/01/15 12:03:21;;;;;;;3.67;2.92;;;15.20;50.00;;;;;;6216341;23;20021;-84
2021/01/15 12:05:49;;;;;;;3.40;2.30;;;15.20;49.90;;;;;;6227202;23;20020;-84
2021/01/15 12:08:20;;;;;;;4.18;2.75;;;15.20;49.90;;;;;;6216620;23;20157;-84
2021/01/15 12:10:51;;;;;;;3.30;1.95;;;15.20;49.90;;;;;;6216564;23;20297;-84
2021/01/15 12:13:17;;;;;;;2.97;2.15;;;15.20;50.00;;;;;;6216875;23;20476;-84
2021/01/15 12:15:54;;;;;;;3.50;1.92;;;15.20;50.00;;;;;;6217855;23;20059;-84
2021/01/15 12:18:20;;;;;;;3.40;2.05;;;15.10;50.00;;;;;;6218001;23;20008;-84
2021/01/15 12:20:46;;;;;;;3.88;2.00;;;15.10;50.00;;;;;;6215882;23;20091;-84
2021/01/15 12:23:14;;;;;;;3.10;1.90;;;15.10;50.00;;;;;;6216520;23;20107;-84
2021/01/15 12:25:40;;;;;;;3.13;2.17;;;15.10;50.00;;;;;;6217411;23;20039;-84
2021/01/15 12:28:10;;;;;;;2.90;1.83;;;15.10;49.90;;;;;;6191403;23;20020;-84
2021/01/15 12:30:36;;;;;;;4.20;2.20;;;15.10;49.90;;;;;;6216438;23;20017;-84
2021/01/15 12:33:09;;;;;;;2.67;1.80;;;15.10;50.00;;;;;;6217497;23;20345;-84
2021/01/15 12:35:36;;;;;;;3.78;2.30;;;15.10;49.90;;;;;;6191404;23;20353;-84
2021/01/15 12:38:09;;;;;;;2.85;1.77;;;15.10;49.90;;;;;;6216371;23;20016;-84
2021/01/15 12:40:36;;;;;;;3.10;2.40;;;15.10;49.90;;;;;;6216714;23;20018;-83
2021/01/15 12:43:03;;;;;;;4.15;2.30;;;15.10;49.90;;;;;;6216800;23;20073;-84
2021/01/15 12:45:29;;;;;;;2.30;1.75;;;15.00;49.80;;;;;;6227911;23;20298;-84
2021/01/15 12:47:55;;;;;;;3.03;2.28;;;15.10;49.90;;;;;;6216110;23;20012;-84
2021/01/15 12:50:21;;;;;;;3.03;2.15;;;15.00;49.80;;;;;;6217412;23;20081;-84
2021/01/15 12:52:47;;;;;;;4.28;3.60;;;15.00;49.80;;;;;;6225293;23;20008;-84
2021/01/15 12:55:13;;;;;;;6.30;4.18;;;15.00;48.60;;;;;;6226422;23;20012;-84
2021/01/15 12:57:39;;;;;;;8.55;3.70;;;14.90;46.10;;;;;;6217605;23;20013;-80
2021/01/15 13:00:22;;;;;;;9.88;3.10;;;14.80;46.40;;;;;;6215668;23;20035;-86
2021/01/15 13:02:48;;;;;;;10.32;2.65;;;14.70;47.90;;;;;;6225895;23;20087;-82
2021/01/15 13:05:25;;;;;;;4.50;2.80;;;14.70;49.60;;;;;;6217349;23;20096;-89
2021/01/15 13:07:51;;;;;;;12.00;2.85;;;14.70;50.30;;;;;;6224080;23;20023;-83
2021/01/15 13:10:17;;;;;;;10.80;2.85;;;14.70;51.10;;;;;;6226780;23;20012;-80
2021/01/15 13:12:44;;;;;;;7.95;2.95;;;14.80;51.60;;;;;;6185925;23;20028;-83